createdAt,value
2019-04-05T00:00:55.656Z,11.23
2019-04-05T00:03:25.473Z,12.33
2019-04-05T00:05:55.275Z,12.27
2019-04-05T00:08:26.177Z,10.63
2019-04-05T00:10:56.286Z,9.80
2019-04-05T00:13:26.444Z,10.33
2019-04-05T00:15:56.681Z,9.53
2019-04-05T00:18:26.536Z,9.80
2019-04-05T00:20:56.682Z,12.30
2019-04-05T00:23:26.592Z,11.50
2019-04-05T00:25:58.201Z,10.03
2019-04-05T00:28:28.193Z,12.37
2019-04-05T00:30:58.307Z,12.33
2019-04-05T00:33:28.224Z,11.40
2019-04-05T00:36:02.629Z,10.10
2019-04-05T00:38:32.457Z,11.47
2019-04-05T00:41:02.294Z,10.73
2019-04-05T00:43:33.544Z,10.77
2019-04-05T00:46:03.571Z,11.87
2019-04-05T00:48:33.432Z,9.97
2019-04-05T00:51:04.024Z,13.45
2019-04-05T00:53:34.314Z,13.10
2019-04-05T00:56:05.773Z,17.50
2019-04-05T00:58:35.608Z,18.60
2019-04-05T01:01:06.183Z,12.97
2019-04-05T01:03:35.992Z,13.80
2019-04-05T01:06:06.314Z,14.90
2019-04-05T01:08:36.199Z,13.97
2019-04-05T01:11:06.167Z,13.53
2019-04-05T01:13:37.982Z,12.30
2019-04-05T01:16:08.239Z,12.23
2019-04-05T01:18:38.058Z,13.10
2019-04-05T01:21:10.942Z,12.17
2019-04-05T01:23:41.206Z,13.70
2019-04-05T01:26:12.726Z,13.70
2019-04-05T01:28:42.732Z,13.50
2019-04-05T01:31:12.990Z,12.17
2019-04-05T01:33:42.874Z,13.13
2019-04-05T01:36:12.955Z,13.73
2019-04-05T01:38:42.847Z,12.67
2019-04-05T01:41:12.884Z,12.97
2019-04-05T01:43:43.205Z,13.97
2019-04-05T01:46:13.561Z,15.25
2019-04-05T01:48:43.370Z,14.17
2019-04-05T01:51:14.437Z,17.37
2019-04-05T01:53:44.534Z,14.97
2019-04-05T01:56:14.733Z,13.23
2019-04-05T01:58:44.690Z,15.70
2019-04-05T02:01:15.166Z,12.98
2019-04-05T02:03:45.099Z,13.07
2019-04-05T02:06:15.609Z,17.65
2019-04-05T02:08:45.848Z,16.60
2019-04-05T02:11:15.824Z,19.27
2019-04-05T02:13:45.772Z,18.57
2019-04-05T02:16:15.970Z,18.42
2019-04-05T02:18:46.178Z,15.17
2019-04-05T02:21:16.353Z,17.00
2019-04-05T02:23:46.378Z,16.00
2019-04-05T02:26:16.677Z,18.75
2019-04-05T02:28:47.142Z,14.83
2019-04-05T02:31:17.553Z,16.50
2019-04-05T02:33:47.538Z,24.60
2019-04-05T02:36:18.374Z,21.05
2019-04-05T02:38:48.248Z,26.43
2019-04-05T02:41:19.313Z,21.30
2019-04-05T02:43:51.634Z,22.90
2019-04-05T02:46:24.332Z,24.23
2019-04-05T02:48:55.824Z,23.33
2019-04-05T02:51:28.203Z,25.50
2019-04-05T02:53:59.986Z,22.53
2019-04-05T02:56:31.162Z,24.18
2019-04-05T02:59:02.207Z,15.37
2019-04-05T03:01:34.975Z,23.63
2019-04-05T03:04:05.736Z,15.07
2019-04-05T03:06:35.973Z,15.63
2019-04-05T03:09:07.297Z,17.50
2019-04-05T03:11:39.497Z,16.67
2019-04-05T03:14:11.324Z,15.45
2019-04-05T03:16:44.177Z,14.47
2019-04-05T03:19:20.861Z,14.43
2019-04-05T03:21:53.814Z,19.90
2019-04-05T03:24:27.342Z,15.73
2019-04-05T03:27:05.120Z,19.07
2019-04-05T03:29:35.586Z,19.10
2019-04-05T03:32:07.137Z,16.57
2019-04-05T03:34:35.791Z,20.43
2019-04-05T03:37:04.617Z,20.73
2019-04-05T03:39:33.233Z,20.20
2019-04-05T03:42:02.108Z,22.10
2019-04-05T03:44:32.493Z,19.33
2019-04-05T03:47:02.889Z,20.60
2019-04-05T03:49:34.584Z,19.77
2019-04-05T03:52:07.763Z,22.48
2019-04-05T03:54:37.853Z,18.10
2019-04-05T03:57:08.787Z,23.67
2019-04-05T03:59:38.854Z,19.37
2019-04-05T04:02:09.052Z,25.20
2019-04-05T04:04:38.919Z,23.40
2019-04-05T04:07:08.925Z,18.53
2019-04-05T04:09:39.223Z,21.27
2019-04-05T04:12:09.128Z,19.03
2019-04-05T04:14:40.176Z,17.27
2019-04-05T04:17:13.409Z,21.65
2019-04-05T04:19:44.348Z,20.80
2019-04-05T04:22:31.200Z,21.20
2019-04-05T04:25:01.745Z,24.87
2019-04-05T04:27:32.111Z,26.40
2019-04-05T04:30:02.577Z,20.87
2019-04-05T04:32:34.248Z,20.30
2019-04-05T04:35:06.563Z,23.47
2019-04-05T04:37:36.531Z,19.00
2019-04-05T04:40:07.266Z,21.63
2019-04-05T04:42:37.784Z,23.43
2019-04-05T04:45:12.294Z,22.33
2019-04-05T04:47:40.146Z,21.03
2019-04-05T04:50:12.280Z,27.87
2019-04-05T04:52:43.037Z,23.70
2019-04-05T04:55:14.200Z,23.98
2019-04-05T04:57:44.415Z,21.03
2019-04-05T05:00:14.692Z,23.55
2019-04-05T05:02:45.421Z,20.10
2019-04-05T05:05:14.203Z,23.25
2019-04-05T05:07:42.638Z,25.70
2019-04-05T05:10:11.391Z,22.97
2019-04-05T05:12:40.041Z,34.50
2019-04-05T05:15:12.683Z,27.02
2019-04-05T05:17:43.171Z,25.67
2019-04-05T05:20:13.869Z,26.75
2019-04-05T05:22:43.976Z,30.37
2019-04-05T05:25:14.635Z,24.97
2019-04-05T05:27:45.218Z,22.37
2019-04-05T05:30:15.121Z,23.87
2019-04-05T05:32:45.151Z,27.27
2019-04-05T05:35:15.529Z,25.57
2019-04-05T05:37:45.688Z,25.20
2019-04-05T05:40:16.606Z,24.70
2019-04-05T05:42:46.496Z,23.90
2019-04-05T05:45:17.051Z,26.97
2019-04-05T05:47:52.226Z,27.63
2019-04-05T05:50:19.031Z,25.10
2019-04-05T05:52:49.592Z,22.13
2019-04-05T05:55:20.749Z,26.60
2019-04-05T05:57:54.336Z,25.30
2019-04-05T06:00:24.782Z,23.90
2019-04-05T06:02:54.616Z,29.00
2019-04-05T06:05:24.572Z,25.80
2019-04-05T06:07:54.481Z,25.67
2019-04-05T06:10:24.944Z,28.05
2019-04-05T06:12:54.760Z,26.23
2019-04-05T06:15:24.564Z,23.37
2019-04-05T06:18:04.498Z,23.43
2019-04-05T06:20:26.449Z,31.33
2019-04-05T06:22:56.507Z,26.83
2019-04-05T06:25:26.424Z,23.90
2019-04-05T06:27:59.765Z,28.20
2019-04-05T06:30:29.153Z,30.83
2019-04-05T06:33:00.310Z,27.80
2019-04-05T06:35:30.289Z,28.53
2019-04-05T06:38:00.287Z,24.63
2019-04-05T06:40:40.227Z,32.33
2019-04-05T06:43:01.925Z,36.53
2019-04-05T06:45:32.283Z,33.00
2019-04-05T06:48:02.399Z,30.47
2019-04-05T06:50:32.420Z,30.23
2019-04-05T06:53:02.270Z,29.67
2019-04-05T06:55:32.354Z,31.97
2019-04-05T06:58:02.641Z,30.60
2019-04-05T07:00:32.656Z,27.27
2019-04-05T07:03:02.481Z,24.53
2019-04-05T07:05:32.617Z,30.30
2019-04-05T07:08:02.770Z,30.50
2019-04-05T07:10:32.582Z,27.23
2019-04-05T07:13:02.658Z,31.50
2019-04-05T07:15:32.489Z,27.00
2019-04-05T07:18:02.294Z,29.63
2019-04-05T07:20:32.103Z,27.37
2019-04-05T07:23:01.914Z,27.27
2019-04-05T07:25:31.738Z,23.67
2019-04-05T07:28:01.705Z,29.37
2019-04-05T07:30:32.730Z,29.27
2019-04-05T07:33:03.001Z,30.20
2019-04-05T07:35:34.171Z,28.47
2019-04-05T07:38:05.760Z,27.42
2019-04-05T07:40:34.306Z,25.87
2019-04-05T07:43:02.734Z,27.57
2019-04-05T07:45:31.165Z,34.73
2019-04-05T07:47:59.595Z,31.50
2019-04-05T07:50:28.124Z,27.77
2019-04-05T07:52:57.041Z,26.87
2019-04-05T07:55:26.887Z,29.90
2019-04-05T07:57:56.771Z,27.07
2019-04-05T08:00:51.477Z,28.90
2019-04-05T08:03:22.435Z,28.42
2019-04-05T08:05:54.303Z,24.70
2019-04-05T08:08:37.077Z,24.70
2019-04-05T08:11:08.525Z,28.50
2019-04-05T08:13:41.565Z,23.80
2019-04-05T08:16:11.684Z,27.67
2019-04-05T08:18:41.601Z,23.97
2019-04-05T08:21:11.723Z,26.17
2019-04-05T08:23:42.334Z,27.43
2019-04-05T08:26:12.434Z,25.07
2019-04-05T08:28:42.592Z,26.20
2019-04-05T08:31:14.519Z,25.53
2019-04-05T08:33:44.130Z,21.70
2019-04-05T08:36:14.239Z,20.83
2019-04-05T08:38:44.096Z,18.67
2019-04-05T08:41:15.152Z,18.00
2019-04-05T08:43:47.194Z,19.50
2019-04-05T08:46:17.791Z,18.32
2019-04-05T08:48:47.806Z,15.40
2019-04-05T08:51:17.584Z,15.63
2019-04-05T08:53:47.712Z,15.00
2019-04-05T08:56:18.647Z,18.60
2019-04-05T08:58:48.464Z,16.50
2019-04-05T09:01:18.567Z,17.03
2019-04-05T09:03:48.597Z,16.77
2019-04-05T09:06:18.696Z,15.97
2019-04-05T09:08:48.493Z,15.30
2019-04-05T09:11:18.570Z,15.43
2019-04-05T09:13:49.814Z,14.20
2019-04-05T09:16:19.649Z,16.67
2019-04-05T09:18:49.757Z,16.83
2019-04-05T09:21:19.652Z,16.53
2019-04-05T09:23:48.071Z,17.20
2019-04-05T09:26:17.678Z,14.70
2019-04-05T09:28:46.564Z,15.90
2019-04-05T09:31:16.594Z,17.80
2019-04-05T09:33:46.422Z,18.03
2019-04-05T09:36:16.775Z,18.00
2019-04-05T09:38:46.888Z,15.50
2019-04-05T09:41:16.846Z,15.67
2019-04-05T09:43:46.799Z,18.67
2019-04-05T09:46:16.896Z,18.60
2019-04-05T09:48:46.700Z,18.93
2019-04-05T09:51:16.510Z,22.87
2019-04-05T09:53:46.333Z,21.53
2019-04-05T09:56:16.463Z,24.65
2019-04-05T09:58:46.630Z,23.13
2019-04-05T10:01:16.747Z,21.25
2019-04-05T10:03:46.705Z,20.33
2019-04-05T10:06:16.899Z,25.32
2019-04-05T10:08:46.744Z,23.23
2019-04-05T10:11:16.691Z,20.65
2019-04-05T10:13:46.571Z,21.30
2019-04-05T10:16:16.447Z,20.10
2019-04-05T10:18:47.205Z,22.00
2019-04-05T10:21:18.256Z,20.40
2019-04-05T10:23:48.187Z,19.07
2019-04-05T10:26:18.286Z,21.10
2019-04-05T10:28:48.336Z,16.60
2019-04-05T10:31:18.679Z,17.42
2019-04-05T10:33:49.595Z,18.33
2019-04-05T10:36:20.177Z,18.15
2019-04-05T10:38:50.068Z,16.27
2019-04-05T10:41:22.792Z,14.97
2019-04-05T10:43:51.448Z,17.57
2019-04-05T10:46:21.474Z,18.03
2019-04-05T10:48:51.471Z,15.93
2019-04-05T10:51:21.779Z,19.27
2019-04-05T10:53:51.984Z,16.17
2019-04-05T10:56:21.795Z,14.98
2019-04-05T10:58:51.619Z,17.27
2019-04-05T11:01:21.738Z,17.45
2019-04-05T11:03:51.562Z,17.97
2019-04-05T11:06:21.833Z,17.70
2019-04-05T11:08:51.676Z,16.90
2019-04-05T11:11:21.781Z,18.53
2019-04-05T11:13:51.625Z,16.50
2019-04-05T11:16:23.051Z,17.98
2019-04-05T11:18:53.149Z,17.87
2019-04-05T11:21:22.976Z,15.63
2019-04-05T11:23:53.612Z,19.63
2019-04-05T11:26:24.530Z,17.17
2019-04-05T11:28:54.359Z,15.83
2019-04-05T11:31:24.478Z,15.27
2019-04-05T11:33:54.934Z,18.70
2019-04-05T11:36:25.409Z,16.03
2019-04-05T11:38:56.863Z,18.52
2019-04-05T11:41:28.327Z,16.73
2019-04-05T11:44:00.832Z,18.03
2019-04-05T11:46:32.723Z,17.20
2019-04-05T11:49:04.466Z,17.27
2019-04-05T11:51:34.548Z,19.30
2019-04-05T11:54:05.862Z,19.85
2019-04-05T11:56:35.691Z,19.30
2019-04-05T11:59:08.960Z,17.90
2019-04-05T12:01:49.575Z,17.62
2019-04-05T12:04:19.563Z,17.90
2019-04-05T12:06:51.776Z,18.80
2019-04-05T12:09:20.928Z,17.97
2019-04-05T12:11:50.743Z,21.30
2019-04-05T12:14:30.045Z,19.45
2019-04-05T12:16:53.163Z,18.00
2019-04-05T12:19:23.286Z,17.90
2019-04-05T12:21:53.254Z,17.60
2019-04-05T12:24:23.203Z,18.73
2019-04-05T12:26:53.312Z,18.47
2019-04-05T12:29:22.734Z,18.75
2019-04-05T12:31:53.405Z,19.03
2019-04-05T12:34:22.397Z,16.77
2019-04-05T12:36:52.694Z,17.83
2019-04-05T12:39:21.345Z,17.67
2019-04-05T12:41:50.108Z,17.20
2019-04-05T12:44:18.682Z,18.90
2019-04-05T12:46:48.590Z,15.67
2019-04-05T12:49:18.669Z,14.53
2019-04-05T12:51:48.499Z,15.87
2019-04-05T12:54:19.659Z,14.25
2019-04-05T12:56:49.667Z,13.40
2019-04-05T12:59:19.702Z,12.70
2019-04-05T13:01:49.540Z,12.90
2019-04-05T13:04:20.630Z,13.83
2019-04-05T13:06:52.950Z,12.70
2019-04-05T13:09:23.549Z,14.40
2019-04-05T13:11:57.296Z,12.67
2019-04-05T13:14:26.972Z,14.43
2019-04-05T13:16:57.132Z,13.77
2019-04-05T13:19:28.513Z,13.80
2019-04-05T13:22:00.670Z,15.43
2019-04-05T13:24:30.370Z,16.77
2019-04-05T13:27:02.093Z,15.87
2019-04-05T13:29:32.197Z,15.00
2019-04-05T13:32:02.024Z,15.27
2019-04-05T13:34:31.839Z,15.53
2019-04-05T13:37:02.008Z,14.20
2019-04-05T13:39:31.794Z,15.47
2019-04-05T13:42:02.474Z,15.37
2019-04-05T13:44:32.553Z,13.67
2019-04-05T13:47:01.199Z,13.57
2019-04-05T13:49:29.637Z,14.93
2019-04-05T13:51:58.206Z,17.07
2019-04-05T13:54:28.398Z,14.13
2019-04-05T13:56:58.255Z,13.80
2019-04-05T13:59:28.526Z,14.57
2019-04-05T14:02:06.085Z,12.20
2019-04-05T14:04:30.950Z,14.50
2019-04-05T14:07:03.581Z,15.33
2019-04-05T14:09:32.614Z,15.93
2019-04-05T14:12:02.506Z,15.53
2019-04-05T14:14:32.331Z,13.87
2019-04-05T14:17:02.226Z,16.40
2019-04-05T14:19:32.548Z,17.27
2019-04-05T14:22:08.290Z,15.37
2019-04-05T14:24:34.322Z,15.73
2019-04-05T14:27:04.308Z,16.63
2019-04-05T14:29:34.119Z,14.90
2019-04-05T14:32:19.852Z,17.98
2019-04-05T14:34:37.260Z,14.90
2019-04-05T14:37:08.363Z,14.97
2019-04-05T14:39:38.416Z,14.77
2019-04-05T14:42:09.892Z,15.83
2019-04-05T14:44:40.139Z,15.07
2019-04-05T14:47:10.266Z,17.95
2019-04-05T14:49:40.334Z,15.17
2019-04-05T14:52:10.546Z,17.20
2019-04-05T14:54:43.164Z,18.77
2019-04-05T14:57:12.565Z,15.27
2019-04-05T14:59:42.435Z,14.17
2019-04-05T15:02:12.560Z,13.80
2019-04-05T15:04:42.576Z,17.23
2019-04-05T15:07:12.718Z,17.20
2019-04-05T15:09:42.525Z,15.43
2019-04-05T15:12:12.503Z,20.13
2019-04-05T15:14:42.351Z,18.97
2019-04-05T15:17:12.464Z,18.25
2019-04-05T15:19:42.480Z,19.07
2019-04-05T15:22:12.605Z,16.55
2019-04-05T15:24:44.585Z,18.63
2019-04-05T15:27:14.751Z,17.10
2019-04-05T15:29:44.560Z,17.43
2019-04-05T15:32:14.568Z,20.13
2019-04-05T15:34:44.649Z,20.43
2019-04-05T15:37:16.238Z,18.20
2019-04-05T15:39:47.155Z,17.97
2019-04-05T15:42:16.958Z,17.07
2019-04-05T15:44:46.979Z,18.70
2019-04-05T15:47:16.788Z,17.47
2019-04-05T15:49:46.585Z,18.33
2019-04-05T15:52:19.079Z,20.77
2019-04-05T15:54:48.494Z,17.87
2019-04-05T15:57:18.616Z,19.60
2019-04-05T15:59:48.598Z,17.60
2019-04-05T16:02:19.050Z,18.07
2019-04-05T16:04:49.010Z,21.33
2019-04-05T16:07:18.899Z,20.80
2019-04-05T16:09:48.788Z,19.73
2019-04-05T16:12:18.701Z,18.53
2019-04-05T16:14:48.521Z,17.10
2019-04-05T16:17:18.632Z,18.92
2019-04-05T16:19:48.580Z,22.17
2019-04-05T16:22:30.635Z,20.50
2019-04-05T16:24:50.168Z,21.00
2019-04-05T16:27:20.446Z,18.02
2019-04-05T16:29:50.293Z,20.03
2019-04-05T16:32:22.056Z,19.92
2019-04-05T16:34:51.866Z,22.10
2019-04-05T16:37:21.783Z,20.40
2019-04-05T16:39:51.692Z,23.27
2019-04-05T16:42:22.055Z,20.37
2019-04-05T16:44:51.863Z,21.03
2019-04-05T16:47:21.920Z,23.30
2019-04-05T16:49:51.735Z,21.10
2019-04-05T16:52:21.773Z,20.50
2019-04-05T16:54:51.576Z,22.43
2019-04-05T16:57:21.696Z,23.22
2019-04-05T16:59:51.692Z,20.87
2019-04-05T17:02:21.581Z,21.60
2019-04-05T17:04:51.386Z,21.37
2019-04-05T17:07:21.709Z,19.77
2019-04-05T17:09:51.509Z,22.57
2019-04-05T17:12:21.721Z,25.80
2019-04-05T17:14:51.588Z,21.67
2019-04-05T17:17:21.740Z,24.23
2019-04-05T17:19:52.730Z,21.03
2019-04-05T17:22:22.879Z,20.70
2019-04-05T17:24:53.065Z,22.32
2019-04-05T17:27:23.419Z,22.13
2019-04-05T17:29:53.431Z,22.73
2019-04-05T17:32:23.684Z,20.17
2019-04-05T17:34:53.623Z,20.63
2019-04-05T17:37:26.495Z,21.17
2019-04-05T17:39:55.600Z,19.03
2019-04-05T17:42:25.566Z,24.70
2019-04-05T17:44:55.646Z,23.40
2019-04-05T17:47:25.548Z,22.77
2019-04-05T17:49:55.517Z,24.60
2019-04-05T17:52:25.466Z,26.93
2019-04-05T17:54:55.865Z,23.80
2019-04-05T17:57:25.676Z,22.60
2019-04-05T17:59:55.671Z,26.33
2019-04-05T18:02:26.264Z,25.80
2019-04-05T18:04:56.345Z,21.07
2019-04-05T18:07:26.505Z,24.63
2019-04-05T18:09:56.415Z,22.03
2019-04-05T18:14:55.651Z,24.60
2019-04-05T18:17:25.480Z,30.27
2019-04-05T18:19:55.382Z,25.40
2019-04-05T18:22:25.366Z,26.33
2019-04-05T18:24:55.421Z,25.97
2019-04-05T18:27:25.606Z,24.73
2019-04-05T18:29:55.605Z,25.03
2019-04-05T18:32:25.423Z,24.70
2019-04-05T18:34:55.474Z,26.13
2019-04-05T18:37:26.442Z,24.13
2019-04-05T18:39:57.526Z,24.30
2019-04-05T18:42:27.434Z,25.73
2019-04-05T18:44:57.546Z,25.23
2019-04-05T18:47:28.048Z,25.07
2019-04-05T18:50:03.207Z,23.73
2019-04-05T18:52:29.669Z,25.00
2019-04-05T18:54:59.548Z,30.30
2019-04-05T18:57:29.847Z,36.23
2019-04-05T18:59:59.658Z,31.93
2019-04-05T19:02:29.922Z,30.17
2019-04-05T19:04:59.738Z,31.67
2019-04-05T19:07:29.623Z,31.00
2019-04-05T19:10:00.027Z,32.20
2019-04-05T19:12:29.884Z,33.23
2019-04-05T19:14:59.818Z,33.77
2019-04-05T19:17:29.882Z,26.67
2019-04-05T19:19:59.683Z,32.67
2019-04-05T19:22:28.695Z,36.07
2019-04-05T19:24:58.756Z,28.20
2019-04-05T19:27:28.558Z,29.97
2019-04-05T19:29:58.750Z,24.20
2019-04-05T19:50:01.896Z,24.40
2019-04-05T19:52:30.322Z,22.20
2019-04-05T19:55:00.426Z,23.43
2019-04-05T19:57:30.450Z,22.60
2019-04-05T20:00:00.531Z,21.87
2019-04-05T20:02:30.358Z,22.87
2019-04-05T20:05:00.238Z,25.73
2019-04-05T20:07:30.254Z,23.30
2019-04-05T20:10:00.353Z,23.57
2019-04-05T20:12:30.438Z,26.30
2019-04-05T20:15:00.240Z,26.20
2019-04-05T20:17:30.057Z,24.70
2019-04-05T20:19:59.874Z,27.90
2019-04-05T20:22:30.002Z,24.93
2019-04-05T20:24:59.802Z,23.57
2019-04-05T20:27:29.617Z,26.83
2019-04-05T20:29:59.445Z,29.00
2019-04-05T20:32:29.541Z,25.00
2019-04-05T20:34:59.605Z,29.40
2019-04-05T20:37:29.418Z,30.23
2019-04-05T20:39:59.511Z,25.50
2019-04-05T20:42:29.598Z,25.53
2019-04-05T20:44:59.402Z,30.30
2019-04-05T20:47:28.880Z,30.52
2019-04-05T20:49:57.815Z,31.37
2019-04-05T20:52:27.843Z,31.07
2019-04-05T20:54:58.107Z,33.40
2019-04-05T20:57:28.477Z,31.50
2019-04-05T20:59:58.598Z,33.13
2019-04-05T21:02:28.401Z,35.03
2019-04-05T21:04:59.562Z,37.07
2019-04-05T21:07:29.506Z,37.33
2019-04-05T21:09:59.599Z,36.47
2019-04-05T21:12:30.380Z,36.03
2019-04-05T21:15:00.243Z,33.40
2019-04-05T21:17:30.327Z,37.53
2019-04-05T21:20:00.405Z,37.40
2019-04-05T21:22:30.470Z,40.87
2019-04-05T21:25:00.509Z,45.33
2019-04-05T21:27:30.572Z,47.63
2019-04-05T21:30:00.420Z,41.13
2019-04-05T21:32:30.294Z,42.90
2019-04-05T21:35:02.547Z,43.92
2019-04-05T21:37:32.736Z,40.67
2019-04-05T21:40:02.680Z,39.87
2019-04-05T21:42:32.688Z,39.37
2019-04-05T21:45:02.560Z,42.33
2019-04-05T21:47:32.429Z,44.43
2019-04-05T21:50:02.653Z,41.77
2019-04-05T21:52:32.529Z,39.13
2019-04-05T21:55:02.617Z,42.17
2019-04-05T21:57:32.716Z,44.37
2019-04-05T22:00:03.052Z,45.97
2019-04-05T22:02:34.558Z,50.07
2019-04-05T22:05:06.647Z,41.80
2019-04-05T22:07:36.529Z,41.30
2019-04-05T22:10:06.778Z,42.10
2019-04-05T22:12:37.550Z,43.93
2019-04-05T22:15:07.876Z,38.33
2019-04-05T22:17:38.132Z,41.73
2019-04-05T22:20:09.802Z,44.93
2019-04-05T22:22:39.934Z,43.47
2019-04-05T22:25:09.889Z,43.10
2019-04-05T22:27:40.085Z,43.90
2019-04-05T22:30:10.788Z,45.43
2019-04-05T22:32:40.783Z,39.27
2019-04-05T22:35:10.813Z,44.13
2019-04-05T22:37:40.816Z,41.17
2019-04-05T22:40:11.134Z,40.03
2019-04-05T22:42:41.058Z,42.73
2019-04-05T22:45:11.438Z,45.20
2019-04-05T22:47:41.732Z,43.87
2019-04-05T22:50:12.181Z,42.70
2019-04-05T22:52:42.283Z,46.13
2019-04-05T22:55:12.621Z,46.68
2019-04-05T22:57:42.870Z,41.97
2019-04-05T23:00:12.886Z,45.00
2019-04-05T23:02:44.698Z,46.20
2019-04-05T23:05:15.305Z,48.30
2019-04-05T23:07:45.378Z,46.83
2019-04-05T23:10:16.416Z,41.95
2019-04-05T23:12:46.468Z,42.07
2019-04-05T23:15:16.728Z,38.63
2019-04-05T23:17:46.709Z,42.33
2019-04-05T23:20:17.352Z,52.45
2019-04-05T23:22:47.980Z,43.33
2019-04-05T23:25:22.155Z,46.15
2019-04-05T23:27:49.583Z,46.00
2019-04-05T23:30:20.754Z,50.05
2019-04-05T23:32:50.643Z,51.33
2019-04-05T23:35:20.819Z,52.73
2019-04-05T23:37:50.720Z,57.37
2019-04-05T23:40:20.959Z,53.58
2019-04-05T23:42:50.847Z,48.10
2019-04-05T23:45:21.079Z,48.30
2019-04-05T23:47:50.966Z,52.30
2019-04-05T23:50:21.426Z,58.33
2019-04-05T23:52:51.635Z,50.17
2019-04-05T23:55:32.507Z,53.10
2019-04-05T23:57:53.453Z,51.43
